Fairview, West Virginia
Current Conditions -  °F | °C
As of 2:28 PM on Friday 28 Nov 2014 (Local Time) from KMGW Reporting Station
Light Snow Light Snow  
Wind Chill: 23°   Ceiling: 4100
Heat Index: 29°   Visibility: 9mi
Dew Point: 16°   Wind: 6mph
Humidity: 58%   Direction: 270°W
Pressure: 30.27"   Gusts: NA
Location:  39.59°N, 80.25°W
Report Text: KMGW 281928Z 27005KT 9SM -SN SCT024 OVC041 M02/M09 A3027 RMK AO2 SNB1854 P0000 T10171089
Loading
Personal Weather Stations






























Interactive Weather Map New forecast layout! Learn more

10-Day Weather Forecast

Advertisements
Track Severe Weather on mobile